sensor_id;sensor_type;location;lat;lon;timestamp;P1;durP1;ratioP1;P2;durP2;ratioP2
56481;SDS011;42384;45.186;19.958;2022-11-06T00:01:14;33.67;;;24.35;;
56481;SDS011;42384;45.186;19.958;2022-11-06T00:03:41;33.70;;;25.67;;
56481;SDS011;42384;45.186;19.958;2022-11-06T00:06:10;33.67;;;25.17;;
56481;SDS011;42384;45.186;19.958;2022-11-06T00:08:57;34.67;;;25.63;;
56481;SDS011;42384;45.186;19.958;2022-11-06T00:11:23;31.77;;;24.90;;
56481;SDS011;42384;45.186;19.958;2022-11-06T00:13:50;31.70;;;23.88;;
56481;SDS011;42384;45.186;19.958;2022-11-06T00:16:19;33.45;;;24.33;;
56481;SDS011;42384;45.186;19.958;2022-11-06T00:18:45;31.27;;;25.13;;
56481;SDS011;42384;45.186;19.958;2022-11-06T00:21:16;32.83;;;24.92;;
56481;SDS011;42384;45.186;19.958;2022-11-06T00:23:42;32.97;;;24.27;;
56481;SDS011;42384;45.186;19.958;2022-11-06T00:26:10;34.13;;;26.27;;
56481;SDS011;42384;45.186;19.958;2022-11-06T00:28:36;37.05;;;26.48;;
56481;SDS011;42384;45.186;19.958;2022-11-06T00:31:06;32.22;;;25.17;;
56481;SDS011;42384;45.186;19.958;2022-11-06T00:33:32;34.22;;;26.65;;
56481;SDS011;42384;45.186;19.958;2022-11-06T00:36:00;31.25;;;24.17;;
56481;SDS011;42384;45.186;19.958;2022-11-06T00:38:27;33.38;;;24.65;;
56481;SDS011;42384;45.186;19.958;2022-11-06T00:40:53;33.38;;;25.85;;
56481;SDS011;42384;45.186;19.958;2022-11-06T00:43:19;32.57;;;25.40;;
56481;SDS011;42384;45.186;19.958;2022-11-06T00:45:45;32.90;;;25.73;;
56481;SDS011;42384;45.186;19.958;2022-11-06T00:48:11;34.07;;;25.03;;
56481;SDS011;42384;45.186;19.958;2022-11-06T00:50:37;32.37;;;24.10;;
56481;SDS011;42384;45.186;19.958;2022-11-06T00:53:03;35.73;;;25.53;;
56481;SDS011;42384;45.186;19.958;2022-11-06T00:55:30;33.08;;;23.10;;
56481;SDS011;42384;45.186;19.958;2022-11-06T00:57:56;32.77;;;25.47;;
56481;SDS011;42384;45.186;19.958;2022-11-06T01:00:22;32.35;;;24.00;;
56481;SDS011;42384;45.186;19.958;2022-11-06T01:02:49;32.22;;;25.40;;
56481;SDS011;42384;45.186;19.958;2022-11-06T01:05:15;31.03;;;25.00;;
56481;SDS011;42384;45.186;19.958;2022-11-06T01:07:41;30.13;;;24.40;;
56481;SDS011;42384;45.186;19.958;2022-11-06T01:10:08;31.13;;;23.90;;
56481;SDS011;42384;45.186;19.958;2022-11-06T01:12:34;34.97;;;25.27;;
56481;SDS011;42384;45.186;19.958;2022-11-06T01:15:00;29.90;;;23.17;;
56481;SDS011;42384;45.186;19.958;2022-11-06T01:17:26;29.45;;;23.75;;
56481;SDS011;42384;45.186;19.958;2022-11-06T01:19:53;30.73;;;23.85;;
56481;SDS011;42384;45.186;19.958;2022-11-06T01:22:19;29.38;;;24.08;;
56481;SDS011;42384;45.186;19.958;2022-11-06T01:24:45;30.85;;;23.48;;
56481;SDS011;42384;45.186;19.958;2022-11-06T01:27:11;30.17;;;23.35;;
56481;SDS011;42384;45.186;19.958;2022-11-06T01:29:38;29.80;;;22.50;;
56481;SDS011;42384;45.186;19.958;2022-11-06T01:32:04;32.85;;;24.45;;
56481;SDS011;42384;45.186;19.958;2022-11-06T01:34:30;32.38;;;23.40;;
56481;SDS011;42384;45.186;19.958;2022-11-06T01:36:57;33.70;;;23.98;;
56481;SDS011;42384;45.186;19.958;2022-11-06T01:39:23;37.60;;;26.60;;
56481;SDS011;42384;45.186;19.958;2022-11-06T01:41:50;32.25;;;22.92;;
56481;SDS011;42384;45.186;19.958;2022-11-06T01:46:43;32.63;;;24.13;;
56481;SDS011;42384;45.186;19.958;2022-11-06T01:49:10;31.33;;;23.60;;
56481;SDS011;42384;45.186;19.958;2022-11-06T01:51:38;33.63;;;25.67;;
56481;SDS011;42384;45.186;19.958;2022-11-06T01:54:05;34.53;;;25.08;;
56481;SDS011;42384;45.186;19.958;2022-11-06T01:56:32;33.72;;;24.90;;
56481;SDS011;42384;45.186;19.958;2022-11-06T01:58:59;34.40;;;24.88;;
56481;SDS011;42384;45.186;19.958;2022-11-06T02:03:55;35.53;;;23.98;;
56481;SDS011;42384;45.186;19.958;2022-11-06T02:06:22;30.83;;;23.42;;
56481;SDS011;42384;45.186;19.958;2022-11-06T02:08:49;33.35;;;24.40;;
56481;SDS011;42384;45.186;19.958;2022-11-06T02:11:16;32.88;;;23.83;;
56481;SDS011;42384;45.186;19.958;2022-11-06T02:24:02;37.00;;;24.83;;
56481;SDS011;42384;45.186;19.958;2022-11-06T02:29:36;38.25;;;26.88;;
56481;SDS011;42384;45.186;19.958;2022-11-06T02:32:01;38.03;;;25.83;;
56481;SDS011;42384;45.186;19.958;2022-11-06T02:34:29;37.85;;;26.65;;
56481;SDS011;42384;45.186;19.958;2022-11-06T02:36:56;38.75;;;27.15;;
56481;SDS011;42384;45.186;19.958;2022-11-06T02:39:25;40.00;;;28.63;;
56481;SDS011;42384;45.186;19.958;2022-11-06T02:41:52;42.88;;;26.63;;
56481;SDS011;42384;45.186;19.958;2022-11-06T02:44:21;41.97;;;27.77;;
56481;SDS011;42384;45.186;19.958;2022-11-06T02:46:59;41.05;;;28.13;;
56481;SDS011;42384;45.186;19.958;2022-11-06T02:49:40;45.78;;;30.10;;
56481;SDS011;42384;45.186;19.958;2022-11-06T02:54:48;43.75;;;28.38;;
56481;SDS011;42384;45.186;19.958;2022-11-06T02:57:16;43.67;;;28.45;;
56481;SDS011;42384;45.186;19.958;2022-11-06T03:02:21;46.40;;;30.63;;
56481;SDS011;42384;45.186;19.958;2022-11-06T03:04:54;47.90;;;29.35;;
56481;SDS011;42384;45.186;19.958;2022-11-06T03:09:58;50.35;;;29.20;;
56481;SDS011;42384;45.186;19.958;2022-11-06T03:12:26;43.10;;;28.73;;
56481;SDS011;42384;45.186;19.958;2022-11-06T03:15:02;51.40;;;31.63;;
56481;SDS011;42384;45.186;19.958;2022-11-06T03:20:03;53.75;;;30.52;;
56481;SDS011;42384;45.186;19.958;2022-11-06T03:22:41;47.80;;;30.38;;
56481;SDS011;42384;45.186;19.958;2022-11-06T03:27:51;43.03;;;28.17;;
56481;SDS011;42384;45.186;19.958;2022-11-06T03:30:21;50.50;;;30.40;;
56481;SDS011;42384;45.186;19.958;2022-11-06T03:35:43;45.33;;;27.98;;
56481;SDS011;42384;45.186;19.958;2022-11-06T03:38:15;47.72;;;26.80;;
56481;SDS011;42384;45.186;19.958;2022-11-06T03:40:45;44.83;;;26.25;;
56481;SDS011;42384;45.186;19.958;2022-11-06T03:43:13;43.53;;;25.48;;
56481;SDS011;42384;45.186;19.958;2022-11-06T03:45:41;44.97;;;26.65;;
56481;SDS011;42384;45.186;19.958;2022-11-06T03:48:27;41.95;;;25.00;;
56481;SDS011;42384;45.186;19.958;2022-11-06T03:53:22;42.43;;;23.90;;
56481;SDS011;42384;45.186;19.958;2022-11-06T03:56:09;46.63;;;26.38;;
56481;SDS011;42384;45.186;19.958;2022-11-06T03:58:38;41.80;;;24.85;;
56481;SDS011;42384;45.186;19.958;2022-11-06T04:01:06;43.58;;;26.05;;
56481;SDS011;42384;45.186;19.958;2022-11-06T04:03:38;44.13;;;26.52;;
56481;SDS011;42384;45.186;19.958;2022-11-06T04:07:07;46.00;;;27.40;;
56481;SDS011;42384;45.186;19.958;2022-11-06T04:09:02;49.63;;;28.10;;
56481;SDS011;42384;45.186;19.958;2022-11-06T04:11:47;52.28;;;27.30;;
56481;SDS011;42384;45.186;19.958;2022-11-06T04:14:33;52.17;;;26.95;;
56481;SDS011;42384;45.186;19.958;2022-11-06T04:17:03;49.30;;;26.85;;
56481;SDS011;42384;45.186;19.958;2022-11-06T04:19:30;48.60;;;26.90;;
56481;SDS011;42384;45.186;19.958;2022-11-06T04:22:05;51.38;;;27.55;;
56481;SDS011;42384;45.186;19.958;2022-11-06T04:24:39;52.70;;;26.40;;
56481;SDS011;42384;45.186;19.958;2022-11-06T04:27:32;48.75;;;26.35;;
56481;SDS011;42384;45.186;19.958;2022-11-06T04:30:09;44.92;;;25.25;;
56481;SDS011;42384;45.186;19.958;2022-11-06T04:35:40;50.20;;;26.30;;
56481;SDS011;42384;45.186;19.958;2022-11-06T04:38:11;48.78;;;25.55;;
56481;SDS011;42384;45.186;19.958;2022-11-06T04:43:30;45.20;;;26.75;;
56481;SDS011;42384;45.186;19.958;2022-11-06T04:46:00;51.20;;;26.08;;
56481;SDS011;42384;45.186;19.958;2022-11-06T04:48:28;51.35;;;27.80;;
56481;SDS011;42384;45.186;19.958;2022-11-06T04:50:55;49.20;;;25.92;;
56481;SDS011;42384;45.186;19.958;2022-11-06T04:53:24;49.88;;;26.20;;
56481;SDS011;42384;45.186;19.958;2022-11-06T04:55:52;55.47;;;27.45;;
56481;SDS011;42384;45.186;19.958;2022-11-06T04:58:19;49.55;;;27.27;;
56481;SDS011;42384;45.186;19.958;2022-11-06T05:00:46;52.10;;;27.30;;
56481;SDS011;42384;45.186;19.958;2022-11-06T05:03:13;50.53;;;26.65;;
56481;SDS011;42384;45.186;19.958;2022-11-06T05:05:40;53.85;;;26.98;;
56481;SDS011;42384;45.186;19.958;2022-11-06T05:08:10;52.88;;;27.55;;
56481;SDS011;42384;45.186;19.958;2022-11-06T05:10:37;55.10;;;27.50;;
56481;SDS011;42384;45.186;19.958;2022-11-06T05:13:03;49.50;;;28.03;;
56481;SDS011;42384;45.186;19.958;2022-11-06T05:15:30;54.03;;;27.30;;
56481;SDS011;42384;45.186;19.958;2022-11-06T05:17:56;54.43;;;28.97;;
56481;SDS011;42384;45.186;19.958;2022-11-06T05:20:23;47.17;;;26.45;;
56481;SDS011;42384;45.186;19.958;2022-11-06T05:22:49;49.45;;;27.35;;
56481;SDS011;42384;45.186;19.958;2022-11-06T05:25:25;54.33;;;29.38;;
56481;SDS011;42384;45.186;19.958;2022-11-06T05:27:52;50.22;;;27.25;;
56481;SDS011;42384;45.186;19.958;2022-11-06T05:30:18;58.73;;;28.90;;
56481;SDS011;42384;45.186;19.958;2022-11-06T05:32:44;63.30;;;28.90;;
56481;SDS011;42384;45.186;19.958;2022-11-06T05:35:11;61.67;;;29.90;;
56481;SDS011;42384;45.186;19.958;2022-11-06T05:37:37;64.28;;;30.83;;
56481;SDS011;42384;45.186;19.958;2022-11-06T05:40:03;57.93;;;28.77;;
56481;SDS011;42384;45.186;19.958;2022-11-06T05:42:30;63.80;;;30.00;;
56481;SDS011;42384;45.186;19.958;2022-11-06T05:44:56;60.95;;;29.50;;
56481;SDS011;42384;45.186;19.958;2022-11-06T05:47:22;67.70;;;30.50;;
56481;SDS011;42384;45.186;19.958;2022-11-06T05:49:49;59.47;;;29.27;;
56481;SDS011;42384;45.186;19.958;2022-11-06T05:52:15;58.43;;;29.47;;
56481;SDS011;42384;45.186;19.958;2022-11-06T05:54:41;58.08;;;29.67;;
56481;SDS011;42384;45.186;19.958;2022-11-06T05:57:07;65.43;;;29.37;;
56481;SDS011;42384;45.186;19.958;2022-11-06T05:59:33;65.20;;;29.47;;
56481;SDS011;42384;45.186;19.958;2022-11-06T06:02:00;65.75;;;30.55;;
56481;SDS011;42384;45.186;19.958;2022-11-06T06:04:28;68.15;;;31.98;;
56481;SDS011;42384;45.186;19.958;2022-11-06T06:06:54;67.35;;;30.05;;
56481;SDS011;42384;45.186;19.958;2022-11-06T06:09:20;66.47;;;30.20;;
56481;SDS011;42384;45.186;19.958;2022-11-06T06:11:50;62.93;;;30.00;;
56481;SDS011;42384;45.186;19.958;2022-11-06T06:14:16;68.05;;;31.35;;
56481;SDS011;42384;45.186;19.958;2022-11-06T06:16:43;70.68;;;30.30;;
56481;SDS011;42384;45.186;19.958;2022-11-06T06:19:09;63.00;;;28.67;;
56481;SDS011;42384;45.186;19.958;2022-11-06T06:21:35;71.83;;;29.97;;
56481;SDS011;42384;45.186;19.958;2022-11-06T06:24:02;64.88;;;29.90;;
56481;SDS011;42384;45.186;19.958;2022-11-06T06:28:55;73.85;;;29.98;;
56481;SDS011;42384;45.186;19.958;2022-11-06T06:31:21;83.20;;;30.98;;
56481;SDS011;42384;45.186;19.958;2022-11-06T06:33:48;76.97;;;31.02;;
56481;SDS011;42384;45.186;19.958;2022-11-06T06:36:14;102.57;;;32.20;;
56481;SDS011;42384;45.186;19.958;2022-11-06T06:38:40;87.40;;;33.05;;
56481;SDS011;42384;45.186;19.958;2022-11-06T06:41:07;96.97;;;34.05;;
56481;SDS011;42384;45.186;19.958;2022-11-06T06:43:34;140.90;;;34.67;;
56481;SDS011;42384;45.186;19.958;2022-11-06T06:46:01;89.68;;;31.55;;
56481;SDS011;42384;45.186;19.958;2022-11-06T06:48:27;96.72;;;33.20;;
56481;SDS011;42384;45.186;19.958;2022-11-06T06:50:57;108.60;;;34.05;;
56481;SDS011;42384;45.186;19.958;2022-11-06T06:53:23;88.35;;;33.30;;
56481;SDS011;42384;45.186;19.958;2022-11-06T06:55:50;83.53;;;33.17;;
56481;SDS011;42384;45.186;19.958;2022-11-06T06:58:16;103.40;;;34.43;;
56481;SDS011;42384;45.186;19.958;2022-11-06T07:00:42;79.47;;;32.37;;
56481;SDS011;42384;45.186;19.958;2022-11-06T07:03:09;118.67;;;33.53;;
56481;SDS011;42384;45.186;19.958;2022-11-06T07:05:35;120.75;;;35.10;;
56481;SDS011;42384;45.186;19.958;2022-11-06T07:08:01;103.57;;;30.65;;
56481;SDS011;42384;45.186;19.958;2022-11-06T07:10:29;72.10;;;32.13;;
56481;SDS011;42384;45.186;19.958;2022-11-06T07:12:59;128.85;;;34.65;;
56481;SDS011;42384;45.186;19.958;2022-11-06T07:15:25;122.90;;;33.72;;
56481;SDS011;42384;45.186;19.958;2022-11-06T07:17:51;99.70;;;34.35;;
56481;SDS011;42384;45.186;19.958;2022-11-06T07:20:18;129.00;;;35.43;;
56481;SDS011;42384;45.186;19.958;2022-11-06T07:22:44;117.40;;;34.30;;
56481;SDS011;42384;45.186;19.958;2022-11-06T07:25:10;91.25;;;34.15;;
56481;SDS011;42384;45.186;19.958;2022-11-06T07:27:37;111.00;;;34.90;;
56481;SDS011;42384;45.186;19.958;2022-11-06T07:30:03;94.00;;;34.83;;
56481;SDS011;42384;45.186;19.958;2022-11-06T07:32:29;95.22;;;33.83;;
56481;SDS011;42384;45.186;19.958;2022-11-06T07:34:56;93.22;;;33.08;;
56481;SDS011;42384;45.186;19.958;2022-11-06T07:37:22;70.23;;;31.37;;
56481;SDS011;42384;45.186;19.958;2022-11-06T07:39:48;74.65;;;32.15;;
56481;SDS011;42384;45.186;19.958;2022-11-06T07:42:15;75.32;;;32.08;;
56481;SDS011;42384;45.186;19.958;2022-11-06T07:44:41;71.30;;;32.78;;
56481;SDS011;42384;45.186;19.958;2022-11-06T07:47:07;70.20;;;32.93;;
56481;SDS011;42384;45.186;19.958;2022-11-06T07:49:34;80.75;;;31.60;;
56481;SDS011;42384;45.186;19.958;2022-11-06T07:52:00;70.73;;;32.70;;
56481;SDS011;42384;45.186;19.958;2022-11-06T07:54:27;65.38;;;31.00;;
56481;SDS011;42384;45.186;19.958;2022-11-06T07:56:53;62.30;;;29.90;;
56481;SDS011;42384;45.186;19.958;2022-11-06T07:59:19;70.93;;;31.27;;
56481;SDS011;42384;45.186;19.958;2022-11-06T08:01:45;59.43;;;28.37;;
56481;SDS011;42384;45.186;19.958;2022-11-06T08:04:12;68.25;;;30.73;;
56481;SDS011;42384;45.186;19.958;2022-11-06T08:06:38;60.55;;;28.92;;
56481;SDS011;42384;45.186;19.958;2022-11-06T08:09:05;64.20;;;29.90;;
56481;SDS011;42384;45.186;19.958;2022-11-06T08:14:00;60.30;;;29.10;;
56481;SDS011;42384;45.186;19.958;2022-11-06T08:16:27;70.53;;;30.77;;
56481;SDS011;42384;45.186;19.958;2022-11-06T08:18:53;55.83;;;28.42;;
56481;SDS011;42384;45.186;19.958;2022-11-06T08:21:20;59.03;;;28.92;;
56481;SDS011;42384;45.186;19.958;2022-11-06T08:23:46;61.22;;;28.75;;
56481;SDS011;42384;45.186;19.958;2022-11-06T08:26:13;56.70;;;28.40;;
56481;SDS011;42384;45.186;19.958;2022-11-06T08:28:39;53.70;;;29.40;;
56481;SDS011;42384;45.186;19.958;2022-11-06T08:31:06;67.43;;;31.05;;
56481;SDS011;42384;45.186;19.958;2022-11-06T08:33:32;54.65;;;27.70;;
56481;SDS011;42384;45.186;19.958;2022-11-06T08:38:26;62.65;;;30.90;;
56481;SDS011;42384;45.186;19.958;2022-11-06T08:40:52;59.87;;;29.97;;
56481;SDS011;42384;45.186;19.958;2022-11-06T08:43:19;69.43;;;31.85;;
56481;SDS011;42384;45.186;19.958;2022-11-06T08:45:48;55.85;;;28.63;;
56481;SDS011;42384;45.186;19.958;2022-11-06T08:48:14;59.78;;;29.23;;
56481;SDS011;42384;45.186;19.958;2022-11-06T08:50:40;58.33;;;29.90;;
56481;SDS011;42384;45.186;19.958;2022-11-06T08:53:07;57.53;;;29.87;;
56481;SDS011;42384;45.186;19.958;2022-11-06T08:55:34;57.00;;;27.58;;
56481;SDS011;42384;45.186;19.958;2022-11-06T08:58:01;56.88;;;27.85;;
56481;SDS011;42384;45.186;19.958;2022-11-06T09:00:28;60.45;;;29.42;;
56481;SDS011;42384;45.186;19.958;2022-11-06T09:03:01;55.30;;;27.95;;
56481;SDS011;42384;45.186;19.958;2022-11-06T09:05:28;61.30;;;33.72;;
56481;SDS011;42384;45.186;19.958;2022-11-06T09:07:58;61.92;;;32.13;;
56481;SDS011;42384;45.186;19.958;2022-11-06T09:10:25;59.92;;;30.30;;
56481;SDS011;42384;45.186;19.958;2022-11-06T09:15:18;55.40;;;29.83;;
56481;SDS011;42384;45.186;19.958;2022-11-06T09:17:45;52.20;;;28.90;;
56481;SDS011;42384;45.186;19.958;2022-11-06T09:22:37;58.65;;;26.77;;
56481;SDS011;42384;45.186;19.958;2022-11-06T09:25:04;50.88;;;27.25;;
56481;SDS011;42384;45.186;19.958;2022-11-06T09:27:30;52.90;;;25.23;;
56481;SDS011;42384;45.186;19.958;2022-11-06T09:29:57;50.60;;;25.27;;
56481;SDS011;42384;45.186;19.958;2022-11-06T09:32:23;51.67;;;25.50;;
56481;SDS011;42384;45.186;19.958;2022-11-06T09:34:49;46.53;;;25.20;;
56481;SDS011;42384;45.186;19.958;2022-11-06T09:37:16;49.67;;;25.58;;
56481;SDS011;42384;45.186;19.958;2022-11-06T09:39:42;54.42;;;27.95;;
56481;SDS011;42384;45.186;19.958;2022-11-06T09:42:27;54.38;;;28.10;;
56481;SDS011;42384;45.186;19.958;2022-11-06T09:47:27;47.95;;;26.35;;
56481;SDS011;42384;45.186;19.958;2022-11-06T09:49:54;48.28;;;26.08;;
56481;SDS011;42384;45.186;19.958;2022-11-06T09:52:26;49.10;;;25.92;;
56481;SDS011;42384;45.186;19.958;2022-11-06T09:54:56;47.85;;;24.85;;
56481;SDS011;42384;45.186;19.958;2022-11-06T09:57:34;51.03;;;25.27;;
56481;SDS011;42384;45.186;19.958;2022-11-06T10:00:03;49.72;;;26.23;;
56481;SDS011;42384;45.186;19.958;2022-11-06T10:05:21;47.92;;;24.88;;
56481;SDS011;42384;45.186;19.958;2022-11-06T10:07:42;49.28;;;24.65;;
56481;SDS011;42384;45.186;19.958;2022-11-06T10:10:16;45.58;;;25.08;;
56481;SDS011;42384;45.186;19.958;2022-11-06T10:15:25;50.05;;;26.90;;
56481;SDS011;42384;45.186;19.958;2022-11-06T10:20:38;53.20;;;26.42;;
56481;SDS011;42384;45.186;19.958;2022-11-06T10:23:13;49.70;;;26.65;;
56481;SDS011;42384;45.186;19.958;2022-11-06T10:25:50;49.38;;;25.75;;
56481;SDS011;42384;45.186;19.958;2022-11-06T10:34:12;49.08;;;25.88;;
56481;SDS011;42384;45.186;19.958;2022-11-06T10:36:49;46.72;;;24.92;;
56481;SDS011;42384;45.186;19.958;2022-11-06T10:38:56;46.03;;;23.85;;
56481;SDS011;42384;45.186;19.958;2022-11-06T10:44:13;48.35;;;25.65;;
56481;SDS011;42384;45.186;19.958;2022-11-06T10:46:39;47.22;;;23.58;;
56481;SDS011;42384;45.186;19.958;2022-11-06T10:49:19;48.03;;;25.63;;
56481;SDS011;42384;45.186;19.958;2022-11-06T10:51:54;49.88;;;26.75;;
56481;SDS011;42384;45.186;19.958;2022-11-06T10:59:26;49.13;;;27.97;;
56481;SDS011;42384;45.186;19.958;2022-11-06T11:01:52;51.37;;;27.37;;
56481;SDS011;42384;45.186;19.958;2022-11-06T11:04:19;53.95;;;27.38;;
56481;SDS011;42384;45.186;19.958;2022-11-06T11:06:45;54.57;;;27.77;;
56481;SDS011;42384;45.186;19.958;2022-11-06T11:09:30;56.50;;;27.23;;
56481;SDS011;42384;45.186;19.958;2022-11-06T11:11:57;63.00;;;29.98;;
56481;SDS011;42384;45.186;19.958;2022-11-06T11:14:24;67.55;;;32.67;;
56481;SDS011;42384;45.186;19.958;2022-11-06T11:16:51;58.75;;;30.27;;
56481;SDS011;42384;45.186;19.958;2022-11-06T11:19:22;66.90;;;32.67;;
56481;SDS011;42384;45.186;19.958;2022-11-06T11:21:52;66.03;;;31.75;;
56481;SDS011;42384;45.186;19.958;2022-11-06T11:24:18;61.55;;;32.05;;
56481;SDS011;42384;45.186;19.958;2022-11-06T11:29:12;62.50;;;31.52;;
56481;SDS011;42384;45.186;19.958;2022-11-06T11:31:39;66.95;;;33.13;;
56481;SDS011;42384;45.186;19.958;2022-11-06T11:34:16;71.00;;;32.88;;
56481;SDS011;42384;45.186;19.958;2022-11-06T11:36:50;71.22;;;33.03;;
56481;SDS011;42384;45.186;19.958;2022-11-06T11:39:18;67.25;;;30.15;;
56481;SDS011;42384;45.186;19.958;2022-11-06T11:41:44;67.65;;;33.13;;
56481;SDS011;42384;45.186;19.958;2022-11-06T11:46:46;65.20;;;31.73;;
56481;SDS011;42384;45.186;19.958;2022-11-06T11:52:10;77.07;;;33.92;;
56481;SDS011;42384;45.186;19.958;2022-11-06T11:54:38;78.97;;;34.63;;
56481;SDS011;42384;45.186;19.958;2022-11-06T11:57:05;66.85;;;32.30;;
56481;SDS011;42384;45.186;19.958;2022-11-06T11:59:45;77.03;;;35.00;;
56481;SDS011;42384;45.186;19.958;2022-11-06T12:02:15;68.03;;;33.20;;
56481;SDS011;42384;45.186;19.958;2022-11-06T12:04:44;67.05;;;32.08;;
56481;SDS011;42384;45.186;19.958;2022-11-06T12:07:21;67.75;;;33.40;;
56481;SDS011;42384;45.186;19.958;2022-11-06T12:09:48;62.75;;;31.67;;
56481;SDS011;42384;45.186;19.958;2022-11-06T12:12:21;67.80;;;32.20;;
56481;SDS011;42384;45.186;19.958;2022-11-06T12:15:02;68.93;;;32.88;;
56481;SDS011;42384;45.186;19.958;2022-11-06T12:17:29;61.55;;;30.67;;
56481;SDS011;42384;45.186;19.958;2022-11-06T12:19:57;65.93;;;31.30;;
56481;SDS011;42384;45.186;19.958;2022-11-06T12:24:53;68.47;;;31.25;;
56481;SDS011;42384;45.186;19.958;2022-11-06T12:27:26;61.65;;;30.88;;
56481;SDS011;42384;45.186;19.958;2022-11-06T12:30:00;63.78;;;30.83;;
56481;SDS011;42384;45.186;19.958;2022-11-06T12:32:35;64.43;;;31.05;;
56481;SDS011;42384;45.186;19.958;2022-11-06T12:37:47;70.50;;;32.75;;
56481;SDS011;42384;45.186;19.958;2022-11-06T12:40:21;68.05;;;32.25;;
56481;SDS011;42384;45.186;19.958;2022-11-06T12:42:59;72.32;;;32.55;;
56481;SDS011;42384;45.186;19.958;2022-11-06T12:48:32;70.28;;;32.92;;
56481;SDS011;42384;45.186;19.958;2022-11-06T12:53:55;70.15;;;33.20;;
56481;SDS011;42384;45.186;19.958;2022-11-06T12:56:30;56.92;;;30.58;;
56481;SDS011;42384;45.186;19.958;2022-11-06T13:04:20;60.30;;;31.57;;
56481;SDS011;42384;45.186;19.958;2022-11-06T13:07:00;66.03;;;30.17;;
56481;SDS011;42384;45.186;19.958;2022-11-06T13:22:15;66.03;;;31.85;;
56481;SDS011;42384;45.186;19.958;2022-11-06T13:24:53;64.72;;;31.02;;
56481;SDS011;42384;45.186;19.958;2022-11-06T13:29:56;58.30;;;31.50;;
56481;SDS011;42384;45.186;19.958;2022-11-06T13:32:24;57.58;;;29.23;;
56481;SDS011;42384;45.186;19.958;2022-11-06T13:34:51;54.85;;;29.45;;
56481;SDS011;42384;45.186;19.958;2022-11-06T13:37:19;66.22;;;33.80;;
56481;SDS011;42384;45.186;19.958;2022-11-06T13:42:22;53.95;;;29.63;;
56481;SDS011;42384;45.186;19.958;2022-11-06T13:44:52;64.75;;;33.53;;
56481;SDS011;42384;45.186;19.958;2022-11-06T13:47:24;68.80;;;36.95;;
56481;SDS011;42384;45.186;19.958;2022-11-06T13:57:45;62.70;;;33.65;;
56481;SDS011;42384;45.186;19.958;2022-11-06T14:00:21;65.57;;;33.72;;
56481;SDS011;42384;45.186;19.958;2022-11-06T14:08:20;60.13;;;33.10;;
56481;SDS011;42384;45.186;19.958;2022-11-06T14:10:52;55.47;;;31.30;;
56481;SDS011;42384;45.186;19.958;2022-11-06T14:13:22;59.42;;;32.45;;
56481;SDS011;42384;45.186;19.958;2022-11-06T14:15:57;60.67;;;31.92;;
56481;SDS011;42384;45.186;19.958;2022-11-06T14:18:23;55.72;;;30.77;;
56481;SDS011;42384;45.186;19.958;2022-11-06T14:20:49;65.50;;;34.57;;
56481;SDS011;42384;45.186;19.958;2022-11-06T14:23:44;69.20;;;35.80;;
56481;SDS011;42384;45.186;19.958;2022-11-06T14:26:11;65.32;;;35.88;;
56481;SDS011;42384;45.186;19.958;2022-11-06T14:28:38;63.10;;;37.05;;
56481;SDS011;42384;45.186;19.958;2022-11-06T14:31:05;63.28;;;33.53;;
56481;SDS011;42384;45.186;19.958;2022-11-06T14:34:24;75.50;;;38.10;;
56481;SDS011;42384;45.186;19.958;2022-11-06T14:38:47;67.05;;;37.40;;
56481;SDS011;42384;45.186;19.958;2022-11-06T14:44:02;77.47;;;39.75;;
56481;SDS011;42384;45.186;19.958;2022-11-06T14:46:29;77.65;;;40.63;;
56481;SDS011;42384;45.186;19.958;2022-11-06T14:49:04;78.90;;;45.03;;
56481;SDS011;42384;45.186;19.958;2022-11-06T14:51:32;76.70;;;41.10;;
56481;SDS011;42384;45.186;19.958;2022-11-06T14:53:58;68.27;;;38.13;;
56481;SDS011;42384;45.186;19.958;2022-11-06T14:56:26;64.00;;;36.95;;
56481;SDS011;42384;45.186;19.958;2022-11-06T14:58:57;67.30;;;36.70;;
56481;SDS011;42384;45.186;19.958;2022-11-06T15:01:24;72.97;;;38.53;;
56481;SDS011;42384;45.186;19.958;2022-11-06T15:09:11;64.43;;;38.45;;
56481;SDS011;42384;45.186;19.958;2022-11-06T15:16:34;67.03;;;37.80;;
56481;SDS011;42384;45.186;19.958;2022-11-06T15:19:05;67.00;;;38.13;;
56481;SDS011;42384;45.186;19.958;2022-11-06T15:24:05;68.65;;;37.53;;
56481;SDS011;42384;45.186;19.958;2022-11-06T15:26:35;69.70;;;38.50;;
56481;SDS011;42384;45.186;19.958;2022-11-06T15:29:10;66.15;;;38.97;;
56481;SDS011;42384;45.186;19.958;2022-11-06T15:31:38;71.68;;;39.20;;
56481;SDS011;42384;45.186;19.958;2022-11-06T15:34:07;68.85;;;39.10;;
56481;SDS011;42384;45.186;19.958;2022-11-06T15:36:38;67.97;;;39.00;;
56481;SDS011;42384;45.186;19.958;2022-11-06T15:39:50;66.57;;;38.97;;
56481;SDS011;42384;45.186;19.958;2022-11-06T15:41:51;64.65;;;37.95;;
56481;SDS011;42384;45.186;19.958;2022-11-06T15:44:18;61.87;;;37.00;;
56481;SDS011;42384;45.186;19.958;2022-11-06T15:46:55;66.35;;;37.92;;
56481;SDS011;42384;45.186;19.958;2022-11-06T15:49:22;65.80;;;40.58;;
56481;SDS011;42384;45.186;19.958;2022-11-06T15:54:31;71.00;;;39.67;;
56481;SDS011;42384;45.186;19.958;2022-11-06T15:56:57;64.40;;;37.65;;
56481;SDS011;42384;45.186;19.958;2022-11-06T15:59:24;68.97;;;38.65;;
56481;SDS011;42384;45.186;19.958;2022-11-06T16:01:50;60.40;;;36.92;;
56481;SDS011;42384;45.186;19.958;2022-11-06T16:04:20;65.70;;;38.30;;
56481;SDS011;42384;45.186;19.958;2022-11-06T16:06:48;62.58;;;36.83;;
56481;SDS011;42384;45.186;19.958;2022-11-06T16:09:19;65.53;;;37.40;;
56481;SDS011;42384;45.186;19.958;2022-11-06T16:11:46;61.75;;;38.00;;
56481;SDS011;42384;45.186;19.958;2022-11-06T16:16:40;58.42;;;36.95;;
56481;SDS011;42384;45.186;19.958;2022-11-06T16:21:54;59.83;;;37.92;;
56481;SDS011;42384;45.186;19.958;2022-11-06T16:24:21;64.57;;;38.13;;
56481;SDS011;42384;45.186;19.958;2022-11-06T16:26:49;57.10;;;36.58;;
56481;SDS011;42384;45.186;19.958;2022-11-06T16:31:48;67.88;;;39.72;;
56481;SDS011;42384;45.186;19.958;2022-11-06T16:34:33;63.15;;;38.40;;
56481;SDS011;42384;45.186;19.958;2022-11-06T16:37:01;68.15;;;38.47;;
56481;SDS011;42384;45.186;19.958;2022-11-06T16:44:26;56.72;;;36.67;;
56481;SDS011;42384;45.186;19.958;2022-11-06T16:52:26;61.38;;;37.10;;
56481;SDS011;42384;45.186;19.958;2022-11-06T16:54:51;61.60;;;36.47;;
56481;SDS011;42384;45.186;19.958;2022-11-06T16:57:18;65.05;;;38.45;;
56481;SDS011;42384;45.186;19.958;2022-11-06T17:02:38;62.22;;;36.20;;
56481;SDS011;42384;45.186;19.958;2022-11-06T17:05:07;63.50;;;37.35;;
56481;SDS011;42384;45.186;19.958;2022-11-06T17:07:34;63.15;;;37.60;;
56481;SDS011;42384;45.186;19.958;2022-11-06T17:10:42;65.50;;;38.90;;
56481;SDS011;42384;45.186;19.958;2022-11-06T17:12:49;62.20;;;35.83;;
56481;SDS011;42384;45.186;19.958;2022-11-06T17:15:16;65.28;;;36.67;;